Aérodrome :
LOGIN :

S'inscrire | Disclaimer

   EN    FR    IT 

 










Légende :    VFR   VFR Marginal   IFR   IFR Intensif   IFR Très Intensif
Visi : 
Plafond : 
>= 8 km
>= 3000ft
5 à 8 km
1000 à 3000 ft
1500m à 5 km
500 à 1000 ft
800 à 1500m
200 à 500 ft
< 800m
< 200 ft
Symboles :   Orages  Brouillard  Fortes neiges  Fortes précipitations  Vent > 20 kt
SIGMETs :   Divers  Orages  Givrage  Turbulence  Onde Orograph.  Cendres Volcan.







- Altitude de l'aérodrome : 90 ft
- Code IATA : NTE
- Voir les cartes d'approche


LFRS - Nantes

DERNIER METAR :
  • 180330Z AUTO 07003KT 040V100 CAVOK 02/M00 Q1020 NOSIG

METARs EXPIRÉS :
  • 180300Z AUTO 10004KT CAVOK 02/M00 Q1019 NOSIG
  • 180230Z AUTO 08003KT 040V110 CAVOK 02/00 Q1020 NOSIG
  • 180200Z AUTO 06004KT 030V100 CAVOK 03/00 Q1020 NOSIG
  • 180130Z AUTO 06005KT CAVOK 03/01 Q1020 NOSIG
  • 180100Z AUTO 06004KT CAVOK 03/01 Q1020 NOSIG

TAF TAF LFRS
Valide du 18 à 00h jusqu'au 19 à 06h UTC


172300Z 1800/1906 08005KT CAVOK
BECMG 1812/1814 15010KT
BECMG 1817/1820 BKN014
TEMPO 1821/1903 3000 RA BKN005 BKN040
TEMPO 1903/1906 4000 SHRA BKN005 BKN015
ATIS : +33 2 40 05 12 74
Pas de NOTAMs connus pour ce terrain.



MET'MAP, la Météo Aéronautique d'un coup d'oeil ! - Copyright ORBIFLY Décembre 2007 - Disclaimer

ORBIFLY MET'MAP TEAM :

Programmation & Développement : Alexandra Zaïnal
Conception & Développement : Baudouin d'Aumeries
Co-Programmation & Développement : Marc-Olivier Méhu
Soutien technique & logistique : Manuel Goepfert

Contact : metmap@orbifly.com




SOURCES & CREDITS :

   NOAA